sensor_id;sensor_type;location;lat;lon;timestamp;P1;durP1;ratioP1;P2;durP2;ratioP2
6077;SDS011;3067;49.470;10.394;2023-02-15T00:02:02;18.10;;;9.03;;
6077;SDS011;3067;49.470;10.394;2023-02-15T00:04:29;16.93;;;9.57;;
6077;SDS011;3067;49.470;10.394;2023-02-15T00:07:10;15.83;;;9.00;;
6077;SDS011;3067;49.470;10.394;2023-02-15T00:09:38;18.63;;;9.00;;
6077;SDS011;3067;49.470;10.394;2023-02-15T00:12:05;16.17;;;8.60;;
6077;SDS011;3067;49.470;10.394;2023-02-15T00:14:32;14.73;;;8.60;;
6077;SDS011;3067;49.470;10.394;2023-02-15T00:17:01;16.50;;;9.03;;
6077;SDS011;3067;49.470;10.394;2023-02-15T00:19:29;16.10;;;9.10;;
6077;SDS011;3067;49.470;10.394;2023-02-15T00:21:56;17.37;;;9.13;;
6077;SDS011;3067;49.470;10.394;2023-02-15T00:24:23;15.47;;;8.10;;
6077;SDS011;3067;49.470;10.394;2023-02-15T00:26:52;17.87;;;9.30;;
6077;SDS011;3067;49.470;10.394;2023-02-15T00:29:19;13.10;;;7.80;;
6077;SDS011;3067;49.470;10.394;2023-02-15T00:31:47;14.57;;;7.93;;
6077;SDS011;3067;49.470;10.394;2023-02-15T00:34:16;17.33;;;9.07;;
6077;SDS011;3067;49.470;10.394;2023-02-15T00:36:44;10.43;;;7.27;;
6077;SDS011;3067;49.470;10.394;2023-02-15T00:39:11;13.50;;;8.20;;
6077;SDS011;3067;49.470;10.394;2023-02-15T00:41:39;14.00;;;8.03;;
6077;SDS011;3067;49.470;10.394;2023-02-15T00:44:06;15.60;;;7.87;;
6077;SDS011;3067;49.470;10.394;2023-02-15T00:46:34;15.97;;;8.13;;
6077;SDS011;3067;49.470;10.394;2023-02-15T00:49:01;16.57;;;8.60;;
6077;SDS011;3067;49.470;10.394;2023-02-15T00:51:30;14.23;;;8.47;;
6077;SDS011;3067;49.470;10.394;2023-02-15T00:53:58;16.20;;;9.30;;
6077;SDS011;3067;49.470;10.394;2023-02-15T00:56:26;15.00;;;8.23;;
6077;SDS011;3067;49.470;10.394;2023-02-15T00:58:54;17.07;;;8.43;;
6077;SDS011;3067;49.470;10.394;2023-02-15T01:01:21;16.20;;;8.87;;
6077;SDS011;3067;49.470;10.394;2023-02-15T01:03:48;13.53;;;8.40;;
6077;SDS011;3067;49.470;10.394;2023-02-15T01:06:16;16.67;;;9.03;;
6077;SDS011;3067;49.470;10.394;2023-02-15T01:08:45;14.93;;;8.40;;
6077;SDS011;3067;49.470;10.394;2023-02-15T01:11:13;13.57;;;7.80;;
6077;SDS011;3067;49.470;10.394;2023-02-15T01:13:46;17.67;;;9.13;;
6077;SDS011;3067;49.470;10.394;2023-02-15T01:16:14;18.83;;;8.60;;
6077;SDS011;3067;49.470;10.394;2023-02-15T01:18:41;17.43;;;9.00;;
6077;SDS011;3067;49.470;10.394;2023-02-15T01:21:09;17.90;;;8.63;;
6077;SDS011;3067;49.470;10.394;2023-02-15T01:23:38;13.27;;;7.90;;
6077;SDS011;3067;49.470;10.394;2023-02-15T01:26:07;13.87;;;8.10;;
6077;SDS011;3067;49.470;10.394;2023-02-15T01:28:34;16.67;;;8.80;;
6077;SDS011;3067;49.470;10.394;2023-02-15T01:31:06;16.63;;;9.10;;
6077;SDS011;3067;49.470;10.394;2023-02-15T01:33:34;13.97;;;7.90;;
6077;SDS011;3067;49.470;10.394;2023-02-15T01:36:01;14.13;;;7.97;;
6077;SDS011;3067;49.470;10.394;2023-02-15T01:38:29;16.97;;;8.87;;
6077;SDS011;3067;49.470;10.394;2023-02-15T01:40:56;13.47;;;8.37;;
6077;SDS011;3067;49.470;10.394;2023-02-15T01:43:46;13.43;;;8.00;;
6077;SDS011;3067;49.470;10.394;2023-02-15T01:46:14;19.73;;;9.07;;
6077;SDS011;3067;49.470;10.394;2023-02-15T01:48:44;15.87;;;9.13;;
6077;SDS011;3067;49.470;10.394;2023-02-15T01:51:12;14.90;;;9.13;;
6077;SDS011;3067;49.470;10.394;2023-02-15T01:53:40;18.00;;;8.77;;
6077;SDS011;3067;49.470;10.394;2023-02-15T01:56:09;13.83;;;9.07;;
6077;SDS011;3067;49.470;10.394;2023-02-15T01:58:39;16.23;;;8.77;;
6077;SDS011;3067;49.470;10.394;2023-02-15T02:01:08;17.47;;;9.10;;
6077;SDS011;3067;49.470;10.394;2023-02-15T02:03:38;14.00;;;8.07;;
6077;SDS011;3067;49.470;10.394;2023-02-15T02:06:06;18.20;;;10.27;;
6077;SDS011;3067;49.470;10.394;2023-02-15T02:08:33;19.03;;;9.87;;
6077;SDS011;3067;49.470;10.394;2023-02-15T02:11:00;19.03;;;8.73;;
6077;SDS011;3067;49.470;10.394;2023-02-15T02:13:28;19.23;;;9.43;;
6077;SDS011;3067;49.470;10.394;2023-02-15T02:15:57;17.47;;;9.27;;
6077;SDS011;3067;49.470;10.394;2023-02-15T02:18:31;17.80;;;9.40;;
6077;SDS011;3067;49.470;10.394;2023-02-15T02:21:11;16.93;;;8.80;;
6077;SDS011;3067;49.470;10.394;2023-02-15T02:23:49;17.80;;;9.23;;
6077;SDS011;3067;49.470;10.394;2023-02-15T02:31:52;16.53;;;8.67;;
6077;SDS011;3067;49.470;10.394;2023-02-15T02:34:26;18.13;;;9.13;;
6077;SDS011;3067;49.470;10.394;2023-02-15T02:36:57;16.43;;;9.03;;
6077;SDS011;3067;49.470;10.394;2023-02-15T02:39:27;23.40;;;10.40;;
6077;SDS011;3067;49.470;10.394;2023-02-15T02:41:59;17.23;;;8.57;;
6077;SDS011;3067;49.470;10.394;2023-02-15T02:44:29;17.47;;;9.10;;
6077;SDS011;3067;49.470;10.394;2023-02-15T02:46:59;17.60;;;8.83;;
6077;SDS011;3067;49.470;10.394;2023-02-15T02:49:33;18.77;;;9.47;;
6077;SDS011;3067;49.470;10.394;2023-02-15T02:52:01;16.20;;;8.60;;
6077;SDS011;3067;49.470;10.394;2023-02-15T02:54:28;21.57;;;10.13;;
6077;SDS011;3067;49.470;10.394;2023-02-15T02:56:56;18.30;;;9.53;;
6077;SDS011;3067;49.470;10.394;2023-02-15T02:59:27;17.23;;;8.97;;
6077;SDS011;3067;49.470;10.394;2023-02-15T03:01:57;19.10;;;9.27;;
6077;SDS011;3067;49.470;10.394;2023-02-15T03:04:26;23.57;;;9.50;;
6077;SDS011;3067;49.470;10.394;2023-02-15T03:06:57;17.97;;;10.17;;
6077;SDS011;3067;49.470;10.394;2023-02-15T03:09:27;17.13;;;8.70;;
6077;SDS011;3067;49.470;10.394;2023-02-15T03:11:59;20.77;;;9.67;;
6077;SDS011;3067;49.470;10.394;2023-02-15T03:14:28;16.20;;;9.60;;
6077;SDS011;3067;49.470;10.394;2023-02-15T03:16:55;22.23;;;10.80;;
6077;SDS011;3067;49.470;10.394;2023-02-15T03:19:23;17.53;;;9.20;;
6077;SDS011;3067;49.470;10.394;2023-02-15T03:21:54;19.83;;;9.97;;
6077;SDS011;3067;49.470;10.394;2023-02-15T03:24:31;23.13;;;11.23;;
6077;SDS011;3067;49.470;10.394;2023-02-15T03:26:59;20.20;;;10.53;;
6077;SDS011;3067;49.470;10.394;2023-02-15T03:29:27;20.43;;;9.67;;
6077;SDS011;3067;49.470;10.394;2023-02-15T03:31:56;22.73;;;10.20;;
6077;SDS011;3067;49.470;10.394;2023-02-15T03:34:24;24.53;;;10.33;;
6077;SDS011;3067;49.470;10.394;2023-02-15T03:36:53;16.70;;;9.13;;
6077;SDS011;3067;49.470;10.394;2023-02-15T03:39:24;20.07;;;10.77;;
6077;SDS011;3067;49.470;10.394;2023-02-15T03:41:58;19.00;;;9.57;;
6077;SDS011;3067;49.470;10.394;2023-02-15T03:44:28;21.80;;;10.67;;
6077;SDS011;3067;49.470;10.394;2023-02-15T03:46:58;19.63;;;10.10;;
6077;SDS011;3067;49.470;10.394;2023-02-15T03:49:27;21.43;;;10.10;;
6077;SDS011;3067;49.470;10.394;2023-02-15T03:51:56;24.00;;;11.23;;
6077;SDS011;3067;49.470;10.394;2023-02-15T03:54:25;20.57;;;10.50;;
6077;SDS011;3067;49.470;10.394;2023-02-15T03:57:11;23.53;;;10.73;;
6077;SDS011;3067;49.470;10.394;2023-02-15T03:59:56;20.07;;;9.90;;
6077;SDS011;3067;49.470;10.394;2023-02-15T04:02:43;22.53;;;10.47;;
6077;SDS011;3067;49.470;10.394;2023-02-15T04:05:13;27.03;;;10.60;;
6077;SDS011;3067;49.470;10.394;2023-02-15T04:07:41;22.17;;;10.10;;
6077;SDS011;3067;49.470;10.394;2023-02-15T04:10:08;25.57;;;10.83;;
6077;SDS011;3067;49.470;10.394;2023-02-15T04:12:55;21.50;;;10.60;;
6077;SDS011;3067;49.470;10.394;2023-02-15T04:15:23;25.87;;;11.83;;
6077;SDS011;3067;49.470;10.394;2023-02-15T04:18:11;23.03;;;10.57;;
6077;SDS011;3067;49.470;10.394;2023-02-15T04:20:38;21.40;;;10.80;;
6077;SDS011;3067;49.470;10.394;2023-02-15T04:23:23;24.07;;;10.10;;
6077;SDS011;3067;49.470;10.394;2023-02-15T04:26:08;22.80;;;9.50;;
6077;SDS011;3067;49.470;10.394;2023-02-15T04:28:36;21.37;;;10.40;;
6077;SDS011;3067;49.470;10.394;2023-02-15T04:31:04;32.13;;;11.00;;
6077;SDS011;3067;49.470;10.394;2023-02-15T04:33:31;25.97;;;11.57;;
6077;SDS011;3067;49.470;10.394;2023-02-15T04:36:01;25.87;;;10.93;;
6077;SDS011;3067;49.470;10.394;2023-02-15T04:38:28;23.37;;;11.80;;
6077;SDS011;3067;49.470;10.394;2023-02-15T04:40:55;26.47;;;11.53;;
6077;SDS011;3067;49.470;10.394;2023-02-15T04:43:23;27.70;;;10.87;;
6077;SDS011;3067;49.470;10.394;2023-02-15T04:45:51;30.10;;;10.87;;
6077;SDS011;3067;49.470;10.394;2023-02-15T04:48:19;22.97;;;10.77;;
6077;SDS011;3067;49.470;10.394;2023-02-15T04:50:46;23.53;;;11.87;;
6077;SDS011;3067;49.470;10.394;2023-02-15T04:53:13;22.40;;;10.63;;
6077;SDS011;3067;49.470;10.394;2023-02-15T04:55:42;22.73;;;11.13;;
6077;SDS011;3067;49.470;10.394;2023-02-15T04:58:09;24.10;;;11.30;;
6077;SDS011;3067;49.470;10.394;2023-02-15T05:00:37;25.07;;;11.30;;
6077;SDS011;3067;49.470;10.394;2023-02-15T05:03:05;24.00;;;10.70;;
6077;SDS011;3067;49.470;10.394;2023-02-15T05:05:33;27.07;;;12.50;;
6077;SDS011;3067;49.470;10.394;2023-02-15T05:08:00;24.97;;;11.17;;
6077;SDS011;3067;49.470;10.394;2023-02-15T05:10:28;24.33;;;10.90;;
6077;SDS011;3067;49.470;10.394;2023-02-15T05:12:55;25.17;;;11.43;;
6077;SDS011;3067;49.470;10.394;2023-02-15T05:15:22;21.47;;;10.73;;
6077;SDS011;3067;49.470;10.394;2023-02-15T05:17:49;29.00;;;12.10;;
6077;SDS011;3067;49.470;10.394;2023-02-15T05:20:18;24.47;;;11.37;;
6077;SDS011;3067;49.470;10.394;2023-02-15T05:22:45;26.53;;;11.80;;
6077;SDS011;3067;49.470;10.394;2023-02-15T05:25:13;23.27;;;10.43;;
6077;SDS011;3067;49.470;10.394;2023-02-15T05:27:58;30.13;;;12.73;;
6077;SDS011;3067;49.470;10.394;2023-02-15T05:30:42;25.90;;;11.70;;
6077;SDS011;3067;49.470;10.394;2023-02-15T05:33:10;25.63;;;10.57;;
6077;SDS011;3067;49.470;10.394;2023-02-15T05:35:38;27.77;;;11.73;;
6077;SDS011;3067;49.470;10.394;2023-02-15T05:38:06;24.30;;;11.67;;
6077;SDS011;3067;49.470;10.394;2023-02-15T05:40:33;28.83;;;12.40;;
6077;SDS011;3067;49.470;10.394;2023-02-15T05:43:00;24.60;;;11.33;;
6077;SDS011;3067;49.470;10.394;2023-02-15T05:45:28;27.80;;;11.80;;
6077;SDS011;3067;49.470;10.394;2023-02-15T05:47:55;26.70;;;12.70;;
6077;SDS011;3067;49.470;10.394;2023-02-15T05:50:23;22.27;;;10.13;;
6077;SDS011;3067;49.470;10.394;2023-02-15T05:52:52;30.03;;;11.90;;
6077;SDS011;3067;49.470;10.394;2023-02-15T05:55:19;21.60;;;11.13;;
6077;SDS011;3067;49.470;10.394;2023-02-15T05:57:47;23.57;;;11.33;;
6077;SDS011;3067;49.470;10.394;2023-02-15T06:00:15;26.30;;;11.40;;
6077;SDS011;3067;49.470;10.394;2023-02-15T06:02:42;20.60;;;9.93;;
6077;SDS011;3067;49.470;10.394;2023-02-15T06:05:10;24.53;;;11.80;;
6077;SDS011;3067;49.470;10.394;2023-02-15T06:07:37;22.10;;;10.43;;
6077;SDS011;3067;49.470;10.394;2023-02-15T06:10:06;20.00;;;10.33;;
6077;SDS011;3067;49.470;10.394;2023-02-15T06:12:34;25.77;;;11.30;;
6077;SDS011;3067;49.470;10.394;2023-02-15T06:15:01;17.13;;;9.00;;
6077;SDS011;3067;49.470;10.394;2023-02-15T06:17:29;20.73;;;10.50;;
6077;SDS011;3067;49.470;10.394;2023-02-15T06:19:56;20.13;;;10.60;;
6077;SDS011;3067;49.470;10.394;2023-02-15T06:22:23;24.93;;;11.60;;
6077;SDS011;3067;49.470;10.394;2023-02-15T06:24:51;22.47;;;10.87;;
6077;SDS011;3067;49.470;10.394;2023-02-15T06:27:19;17.63;;;10.10;;
6077;SDS011;3067;49.470;10.394;2023-02-15T06:29:46;20.77;;;10.20;;
6077;SDS011;3067;49.470;10.394;2023-02-15T06:32:14;22.77;;;9.77;;
6077;SDS011;3067;49.470;10.394;2023-02-15T06:34:41;43.80;;;24.07;;
6077;SDS011;3067;49.470;10.394;2023-02-15T06:37:08;34.17;;;18.47;;
6077;SDS011;3067;49.470;10.394;2023-02-15T06:39:36;24.40;;;12.10;;
6077;SDS011;3067;49.470;10.394;2023-02-15T06:42:03;18.53;;;9.43;;
6077;SDS011;3067;49.470;10.394;2023-02-15T06:44:32;23.07;;;10.57;;
6077;SDS011;3067;49.470;10.394;2023-02-15T06:46:59;24.10;;;10.10;;
6077;SDS011;3067;49.470;10.394;2023-02-15T06:49:26;19.10;;;9.30;;
6077;SDS011;3067;49.470;10.394;2023-02-15T06:51:54;20.80;;;9.57;;
6077;SDS011;3067;49.470;10.394;2023-02-15T06:54:21;18.57;;;9.50;;
6077;SDS011;3067;49.470;10.394;2023-02-15T06:56:49;24.00;;;9.80;;
6077;SDS011;3067;49.470;10.394;2023-02-15T06:59:16;26.80;;;9.67;;
6077;SDS011;3067;49.470;10.394;2023-02-15T07:01:45;20.40;;;9.63;;
6077;SDS011;3067;49.470;10.394;2023-02-15T07:04:12;20.03;;;9.70;;
6077;SDS011;3067;49.470;10.394;2023-02-15T07:06:39;19.17;;;9.60;;
6077;SDS011;3067;49.470;10.394;2023-02-15T07:09:06;24.97;;;10.87;;
6077;SDS011;3067;49.470;10.394;2023-02-15T07:11:34;21.63;;;10.70;;
6077;SDS011;3067;49.470;10.394;2023-02-15T07:14:19;18.30;;;9.63;;
6077;SDS011;3067;49.470;10.394;2023-02-15T07:16:47;17.40;;;9.20;;
6077;SDS011;3067;49.470;10.394;2023-02-15T07:32:50;21.40;;;11.73;;
6077;SDS011;3067;49.470;10.394;2023-02-15T07:35:34;19.23;;;10.40;;
6077;SDS011;3067;49.470;10.394;2023-02-15T07:38:01;22.30;;;11.13;;
6077;SDS011;3067;49.470;10.394;2023-02-15T07:40:29;20.17;;;10.43;;
6077;SDS011;3067;49.470;10.394;2023-02-15T07:42:57;17.77;;;9.87;;
6077;SDS011;3067;49.470;10.394;2023-02-15T07:45:25;18.70;;;9.70;;
6077;SDS011;3067;49.470;10.394;2023-02-15T07:47:54;19.20;;;9.80;;
6077;SDS011;3067;49.470;10.394;2023-02-15T07:50:21;20.10;;;9.90;;
6077;SDS011;3067;49.470;10.394;2023-02-15T07:52:49;17.83;;;8.93;;
6077;SDS011;3067;49.470;10.394;2023-02-15T07:55:16;16.70;;;9.63;;
6077;SDS011;3067;49.470;10.394;2023-02-15T07:57:44;17.47;;;8.67;;
6077;SDS011;3067;49.470;10.394;2023-02-15T08:00:12;19.70;;;9.77;;
6077;SDS011;3067;49.470;10.394;2023-02-15T08:02:40;20.00;;;10.40;;
6077;SDS011;3067;49.470;10.394;2023-02-15T08:05:08;24.10;;;12.30;;
6077;SDS011;3067;49.470;10.394;2023-02-15T08:07:36;26.07;;;12.87;;
6077;SDS011;3067;49.470;10.394;2023-02-15T08:10:03;20.53;;;9.87;;
6077;SDS011;3067;49.470;10.394;2023-02-15T08:12:31;21.73;;;10.43;;
6077;SDS011;3067;49.470;10.394;2023-02-15T08:14:58;22.10;;;9.97;;
6077;SDS011;3067;49.470;10.394;2023-02-15T08:17:25;22.13;;;10.37;;
6077;SDS011;3067;49.470;10.394;2023-02-15T08:19:53;19.07;;;11.27;;
6077;SDS011;3067;49.470;10.394;2023-02-15T08:22:22;29.23;;;13.13;;
6077;SDS011;3067;49.470;10.394;2023-02-15T08:24:51;33.10;;;15.47;;
6077;SDS011;3067;49.470;10.394;2023-02-15T08:27:18;33.70;;;15.37;;
6077;SDS011;3067;49.470;10.394;2023-02-15T08:29:51;23.33;;;10.90;;
6077;SDS011;3067;49.470;10.394;2023-02-15T08:32:19;25.07;;;11.77;;
6077;SDS011;3067;49.470;10.394;2023-02-15T08:34:46;20.30;;;10.60;;
6077;SDS011;3067;49.470;10.394;2023-02-15T08:37:14;18.30;;;9.77;;
6077;SDS011;3067;49.470;10.394;2023-02-15T08:39:42;19.10;;;9.57;;
6077;SDS011;3067;49.470;10.394;2023-02-15T08:42:10;18.90;;;9.50;;
6077;SDS011;3067;49.470;10.394;2023-02-15T08:44:38;24.47;;;9.30;;
6077;SDS011;3067;49.470;10.394;2023-02-15T08:47:06;17.23;;;8.90;;
6077;SDS011;3067;49.470;10.394;2023-02-15T08:49:33;17.80;;;9.37;;
6077;SDS011;3067;49.470;10.394;2023-02-15T08:52:00;15.80;;;8.90;;
6077;SDS011;3067;49.470;10.394;2023-02-15T08:54:28;17.90;;;9.50;;
6077;SDS011;3067;49.470;10.394;2023-02-15T08:56:56;18.30;;;9.07;;
6077;SDS011;3067;49.470;10.394;2023-02-15T08:59:24;14.13;;;7.90;;
6077;SDS011;3067;49.470;10.394;2023-02-15T09:01:52;20.67;;;10.13;;
6077;SDS011;3067;49.470;10.394;2023-02-15T09:04:20;22.30;;;8.93;;
6077;SDS011;3067;49.470;10.394;2023-02-15T09:06:48;14.63;;;8.40;;
6077;SDS011;3067;49.470;10.394;2023-02-15T09:09:16;16.63;;;9.20;;
6077;SDS011;3067;49.470;10.394;2023-02-15T09:11:44;16.50;;;9.30;;
6077;SDS011;3067;49.470;10.394;2023-02-15T09:14:13;17.67;;;9.17;;
6077;SDS011;3067;49.470;10.394;2023-02-15T09:16:41;16.00;;;9.07;;
6077;SDS011;3067;49.470;10.394;2023-02-15T09:19:09;16.93;;;9.47;;
6077;SDS011;3067;49.470;10.394;2023-02-15T09:21:37;16.97;;;8.80;;
6077;SDS011;3067;49.470;10.394;2023-02-15T09:24:05;17.93;;;8.70;;
6077;SDS011;3067;49.470;10.394;2023-02-15T09:26:34;15.50;;;9.23;;
6077;SDS011;3067;49.470;10.394;2023-02-15T09:29:02;19.37;;;10.10;;
6077;SDS011;3067;49.470;10.394;2023-02-15T09:31:31;17.60;;;9.00;;
6077;SDS011;3067;49.470;10.394;2023-02-15T09:34:00;15.87;;;9.30;;
6077;SDS011;3067;49.470;10.394;2023-02-15T09:36:28;19.50;;;9.43;;
6077;SDS011;3067;49.470;10.394;2023-02-15T09:38:56;18.17;;;9.23;;
6077;SDS011;3067;49.470;10.394;2023-02-15T09:41:28;16.90;;;9.10;;
6077;SDS011;3067;49.470;10.394;2023-02-15T09:44:04;17.00;;;9.93;;
6077;SDS011;3067;49.470;10.394;2023-02-15T09:46:47;17.63;;;8.83;;
6077;SDS011;3067;49.470;10.394;2023-02-15T09:49:20;18.93;;;10.30;;
6077;SDS011;3067;49.470;10.394;2023-02-15T09:51:53;15.90;;;9.27;;
6077;SDS011;3067;49.470;10.394;2023-02-15T09:57:17;19.67;;;9.50;;
6077;SDS011;3067;49.470;10.394;2023-02-15T09:59:50;17.77;;;9.90;;
6077;SDS011;3067;49.470;10.394;2023-02-15T10:02:27;17.90;;;10.10;;
6077;SDS011;3067;49.470;10.394;2023-02-15T10:05:04;16.37;;;9.60;;
6077;SDS011;3067;49.470;10.394;2023-02-15T10:07:43;17.43;;;9.70;;
6077;SDS011;3067;49.470;10.394;2023-02-15T10:10:14;17.43;;;9.50;;
6077;SDS011;3067;49.470;10.394;2023-02-15T10:12:54;15.60;;;9.67;;
6077;SDS011;3067;49.470;10.394;2023-02-15T10:15:27;18.53;;;10.20;;
6077;SDS011;3067;49.470;10.394;2023-02-15T10:18:09;16.90;;;10.47;;
6077;SDS011;3067;49.470;10.394;2023-02-15T10:20:39;16.73;;;9.40;;
6077;SDS011;3067;49.470;10.394;2023-02-15T10:23:14;18.23;;;10.97;;
6077;SDS011;3067;49.470;10.394;2023-02-15T10:25:43;17.00;;;10.17;;
6077;SDS011;3067;49.470;10.394;2023-02-15T10:28:15;18.67;;;10.30;;
6077;SDS011;3067;49.470;10.394;2023-02-15T10:30:44;18.57;;;9.80;;
6077;SDS011;3067;49.470;10.394;2023-02-15T10:33:16;15.30;;;9.53;;
6077;SDS011;3067;49.470;10.394;2023-02-15T10:35:47;15.57;;;9.23;;
6077;SDS011;3067;49.470;10.394;2023-02-15T10:38:20;22.70;;;10.13;;
6077;SDS011;3067;49.470;10.394;2023-02-15T10:40:55;13.57;;;8.93;;
6077;SDS011;3067;49.470;10.394;2023-02-15T10:43:31;16.10;;;9.63;;
6077;SDS011;3067;49.470;10.394;2023-02-15T10:46:05;14.93;;;9.40;;
6077;SDS011;3067;49.470;10.394;2023-02-15T10:48:43;16.77;;;9.33;;
6077;SDS011;3067;49.470;10.394;2023-02-15T10:51:18;14.17;;;8.93;;
6077;SDS011;3067;49.470;10.394;2023-02-15T10:53:59;17.50;;;9.57;;
6077;SDS011;3067;49.470;10.394;2023-02-15T10:56:29;14.80;;;9.13;;
6077;SDS011;3067;49.470;10.394;2023-02-15T10:59:04;12.87;;;8.47;;
6077;SDS011;3067;49.470;10.394;2023-02-15T11:01:34;15.37;;;9.00;;
6077;SDS011;3067;49.470;10.394;2023-02-15T11:04:08;16.03;;;9.70;;
6077;SDS011;3067;49.470;10.394;2023-02-15T11:06:41;19.77;;;8.50;;
6077;SDS011;3067;49.470;10.394;2023-02-15T11:09:13;14.93;;;9.63;;
6077;SDS011;3067;49.470;10.394;2023-02-15T11:11:44;16.77;;;10.30;;
6077;SDS011;3067;49.470;10.394;2023-02-15T11:14:14;15.37;;;10.10;;
6077;SDS011;3067;49.470;10.394;2023-02-15T11:16:43;16.87;;;10.30;;
6077;SDS011;3067;49.470;10.394;2023-02-15T11:19:14;16.80;;;10.10;;
6077;SDS011;3067;49.470;10.394;2023-02-15T11:21:43;16.20;;;10.50;;
6077;SDS011;3067;49.470;10.394;2023-02-15T11:24:11;16.93;;;10.50;;
6077;SDS011;3067;49.470;10.394;2023-02-15T11:26:41;15.50;;;10.33;;
6077;SDS011;3067;49.470;10.394;2023-02-15T11:29:10;16.70;;;10.70;;
6077;SDS011;3067;49.470;10.394;2023-02-15T11:31:41;19.40;;;12.00;;
6077;SDS011;3067;49.470;10.394;2023-02-15T11:34:13;16.30;;;10.30;;
6077;SDS011;3067;49.470;10.394;2023-02-15T11:36:43;17.73;;;10.63;;
6077;SDS011;3067;49.470;10.394;2023-02-15T11:39:12;16.87;;;10.70;;
6077;SDS011;3067;49.470;10.394;2023-02-15T11:41:41;16.20;;;10.43;;
6077;SDS011;3067;49.470;10.394;2023-02-15T11:44:11;17.37;;;10.90;;
6077;SDS011;3067;49.470;10.394;2023-02-15T11:46:41;15.07;;;10.13;;
6077;SDS011;3067;49.470;10.394;2023-02-15T11:49:10;13.17;;;9.63;;
6077;SDS011;3067;49.470;10.394;2023-02-15T11:51:48;16.90;;;10.97;;
6077;SDS011;3067;49.470;10.394;2023-02-15T11:54:17;16.13;;;10.40;;
6077;SDS011;3067;49.470;10.394;2023-02-15T11:56:44;18.70;;;10.37;;
6077;SDS011;3067;49.470;10.394;2023-02-15T11:59:12;15.60;;;10.20;;
6077;SDS011;3067;49.470;10.394;2023-02-15T12:01:42;21.50;;;10.23;;
6077;SDS011;3067;49.470;10.394;2023-02-15T12:04:13;19.93;;;11.20;;
6077;SDS011;3067;49.470;10.394;2023-02-15T12:06:43;14.40;;;10.00;;
6077;SDS011;3067;49.470;10.394;2023-02-15T12:09:16;16.53;;;10.60;;
6077;SDS011;3067;49.470;10.394;2023-02-15T12:11:45;15.10;;;9.80;;
6077;SDS011;3067;49.470;10.394;2023-02-15T12:14:12;15.27;;;10.20;;
6077;SDS011;3067;49.470;10.394;2023-02-15T12:16:42;16.70;;;10.30;;
6077;SDS011;3067;49.470;10.394;2023-02-15T12:19:13;18.50;;;10.10;;
6077;SDS011;3067;49.470;10.394;2023-02-15T12:21:44;17.37;;;10.70;;
6077;SDS011;3067;49.470;10.394;2023-02-15T12:24:18;16.43;;;10.43;;
6077;SDS011;3067;49.470;10.394;2023-02-15T12:26:48;15.30;;;9.93;;
6077;SDS011;3067;49.470;10.394;2023-02-15T12:29:23;18.50;;;10.13;;
6077;SDS011;3067;49.470;10.394;2023-02-15T12:31:52;17.10;;;10.17;;
6077;SDS011;3067;49.470;10.394;2023-02-15T12:34:21;21.23;;;11.70;;
6077;SDS011;3067;49.470;10.394;2023-02-15T12:36:50;15.93;;;10.77;;
6077;SDS011;3067;49.470;10.394;2023-02-15T12:39:21;16.93;;;10.37;;
6077;SDS011;3067;49.470;10.394;2023-02-15T12:41:58;19.00;;;11.00;;
6077;SDS011;3067;49.470;10.394;2023-02-15T12:44:26;15.73;;;10.30;;
6077;SDS011;3067;49.470;10.394;2023-02-15T12:46:58;16.13;;;10.97;;
6077;SDS011;3067;49.470;10.394;2023-02-15T12:49:26;16.10;;;11.07;;
6077;SDS011;3067;49.470;10.394;2023-02-15T12:51:54;16.17;;;10.67;;
6077;SDS011;3067;49.470;10.394;2023-02-15T12:54:36;15.80;;;10.90;;
6077;SDS011;3067;49.470;10.394;2023-02-15T12:59:57;18.03;;;10.70;;
6077;SDS011;3067;49.470;10.394;2023-02-15T13:02:27;15.20;;;10.53;;
6077;SDS011;3067;49.470;10.394;2023-02-15T13:04:55;17.00;;;11.40;;
6077;SDS011;3067;49.470;10.394;2023-02-15T13:07:24;18.63;;;11.23;;
6077;SDS011;3067;49.470;10.394;2023-02-15T13:09:53;16.93;;;11.33;;
6077;SDS011;3067;49.470;10.394;2023-02-15T13:12:21;16.20;;;11.80;;
6077;SDS011;3067;49.470;10.394;2023-02-15T13:14:49;18.10;;;11.67;;
6077;SDS011;3067;49.470;10.394;2023-02-15T13:17:17;15.20;;;10.80;;
6077;SDS011;3067;49.470;10.394;2023-02-15T13:19:47;13.77;;;10.80;;
6077;SDS011;3067;49.470;10.394;2023-02-15T13:22:16;17.77;;;11.47;;
6077;SDS011;3067;49.470;10.394;2023-02-15T13:24:46;19.40;;;11.60;;
6077;SDS011;3067;49.470;10.394;2023-02-15T13:27:16;17.43;;;11.23;;
6077;SDS011;3067;49.470;10.394;2023-02-15T13:29:45;17.30;;;10.63;;
6077;SDS011;3067;49.470;10.394;2023-02-15T13:32:17;18.93;;;11.77;;
6077;SDS011;3067;49.470;10.394;2023-02-15T13:34:57;17.73;;;12.03;;
6077;SDS011;3067;49.470;10.394;2023-02-15T13:37:31;18.70;;;11.90;;
6077;SDS011;3067;49.470;10.394;2023-02-15T13:40:02;31.87;;;12.17;;
6077;SDS011;3067;49.470;10.394;2023-02-15T13:42:36;16.50;;;12.03;;
6077;SDS011;3067;49.470;10.394;2023-02-15T13:45:08;16.07;;;11.73;;
6077;SDS011;3067;49.470;10.394;2023-02-15T13:47:38;15.73;;;12.17;;
6077;SDS011;3067;49.470;10.394;2023-02-15T13:50:16;15.23;;;11.93;;
6077;SDS011;3067;49.470;10.394;2023-02-15T13:52:46;17.40;;;12.13;;
6077;SDS011;3067;49.470;10.394;2023-02-15T13:55:21;16.17;;;12.30;;
6077;SDS011;3067;49.470;10.394;2023-02-15T13:58:03;16.17;;;12.30;;
6077;SDS011;3067;49.470;10.394;2023-02-15T14:00:37;15.53;;;12.43;;
6077;SDS011;3067;49.470;10.394;2023-02-15T14:03:24;14.97;;;12.47;;
6077;SDS011;3067;49.470;10.394;2023-02-15T14:05:57;14.60;;;12.53;;
6077;SDS011;3067;49.470;10.394;2023-02-15T14:08:33;13.20;;;11.70;;
6077;SDS011;3067;49.470;10.394;2023-02-15T14:11:04;13.30;;;11.43;;
6077;SDS011;3067;49.470;10.394;2023-02-15T14:14:00;14.43;;;12.10;;
6077;SDS011;3067;49.470;10.394;2023-02-15T14:16:32;13.23;;;11.83;;
6077;SDS011;3067;49.470;10.394;2023-02-15T14:19:04;12.97;;;11.60;;
6077;SDS011;3067;49.470;10.394;2023-02-15T14:21:37;14.10;;;12.10;;
6077;SDS011;3067;49.470;10.394;2023-02-15T14:24:14;13.67;;;11.50;;
6077;SDS011;3067;49.470;10.394;2023-02-15T14:26:47;13.07;;;11.67;;
6077;SDS011;3067;49.470;10.394;2023-02-15T14:29:22;13.93;;;11.73;;
6077;SDS011;3067;49.470;10.394;2023-02-15T14:31:52;13.63;;;11.43;;
6077;SDS011;3067;49.470;10.394;2023-02-15T14:34:21;15.50;;;12.73;;
6077;SDS011;3067;49.470;10.394;2023-02-15T14:36:49;14.30;;;12.00;;
6077;SDS011;3067;49.470;10.394;2023-02-15T14:39:19;12.80;;;11.50;;
6077;SDS011;3067;49.470;10.394;2023-02-15T14:42:04;14.43;;;12.10;;
6077;SDS011;3067;49.470;10.394;2023-02-15T14:44:36;13.10;;;11.70;;
6077;SDS011;3067;49.470;10.394;2023-02-15T14:47:05;13.10;;;11.77;;
6077;SDS011;3067;49.470;10.394;2023-02-15T14:49:35;14.00;;;12.10;;
6077;SDS011;3067;49.470;10.394;2023-02-15T14:52:04;13.60;;;11.50;;
6077;SDS011;3067;49.470;10.394;2023-02-15T15:02:54;13.70;;;11.30;;
6077;SDS011;3067;49.470;10.394;2023-02-15T15:05:23;13.97;;;11.90;;
6077;SDS011;3067;49.470;10.394;2023-02-15T15:07:52;15.50;;;11.93;;
6077;SDS011;3067;49.470;10.394;2023-02-15T15:10:33;12.97;;;11.57;;
6077;SDS011;3067;49.470;10.394;2023-02-15T15:13:33;14.07;;;12.17;;
6077;SDS011;3067;49.470;10.394;2023-02-15T15:15:54;14.67;;;11.77;;
6077;SDS011;3067;49.470;10.394;2023-02-15T15:21:06;16.70;;;12.00;;
6077;SDS011;3067;49.470;10.394;2023-02-15T15:23:40;14.70;;;12.03;;
6077;SDS011;3067;49.470;10.394;2023-02-15T15:26:20;16.87;;;13.03;;
6077;SDS011;3067;49.470;10.394;2023-02-15T15:31:38;18.10;;;13.30;;
6077;SDS011;3067;49.470;10.394;2023-02-15T15:34:15;15.80;;;12.80;;
6077;SDS011;3067;49.470;10.394;2023-02-15T15:42:11;17.27;;;13.17;;
6077;SDS011;3067;49.470;10.394;2023-02-15T15:47:33;19.23;;;13.80;;